地図

経路データ

SID SEASON NUMBER BASIN SUBBASIN NAME ISO_TIME NATURE LAT LON WMO_WIND WMO_PRES WMO_AGENCY TRACK_TYPE DIST2LAND LANDFALL IFLAG USA_AGENCY USA_ATCF_ID USA_LAT USA_LON USA_RECORD USA_STATUS USA_WIND USA_PRES USA_SSHS USA_R34_NE USA_R34_SE USA_R34_SW USA_R34_NW USA_R50_NE USA_R50_SE USA_R50_SW USA_R50_NW USA_R64_NE USA_R64_SE USA_R64_SW USA_R64_NW USA_POCI USA_ROCI USA_RMW USA_EYE TOKYO_LAT TOKYO_LON TOKYO_GRADE TOKYO_WIND TOKYO_PRES TOKYO_R50_DIR TOKYO_R50_LONG TOKYO_R50_SHORT TOKYO_R30_DIR TOKYO_R30_LONG TOKYO_R30_SHORT TOKYO_LAND CMA_LAT CMA_LON CMA_CAT CMA_WIND CMA_PRES HKO_LAT HKO_LON HKO_CAT HKO_WIND HKO_PRES NEWDELHI_LAT NEWDELHI_LON NEWDELHI_GRADE NEWDELHI_WIND NEWDELHI_PRES NEWDELHI_CI NEWDELHI_DP NEWDELHI_POCI REUNION_LAT REUNION_LON REUNION_TYPE REUNION_WIND REUNION_PRES REUNION_TNUM REUNION_CI REUNION_RMW REUNION_R34_NE REUNION_R34_SE REUNION_R34_SW REUNION_R34_NW REUNION_R50_NE REUNION_R50_SE REUNION_R50_SW REUNION_R50_NW REUNION_R64_NE REUNION_R64_SE REUNION_R64_SW REUNION_R64_NW BOM_LAT BOM_LON BOM_TYPE BOM_WIND BOM_PRES BOM_TNUM BOM_CI BOM_RMW BOM_R34_NE BOM_R34_SE BOM_R34_SW BOM_R34_NW BOM_R50_NE BOM_R50_SE BOM_R50_SW BOM_R50_NW BOM_R64_NE BOM_R64_SE BOM_R64_SW BOM_R64_NW BOM_ROCI BOM_POCI BOM_EYE BOM_POS_METHOD BOM_PRES_METHOD NADI_LAT NADI_LON NADI_CAT NADI_WIND NADI_PRES WELLINGTON_LAT WELLINGTON_LON WELLINGTON_WIND WELLINGTON_PRES DS824_LAT DS824_LON DS824_STAGE DS824_WIND DS824_PRES TD9636_LAT TD9636_LON TD9636_STAGE TD9636_WIND TD9636_PRES TD9635_LAT TD9635_LON TD9635_WIND TD9635_PRES TD9635_ROCI NEUMANN_LAT NEUMANN_LON NEUMANN_CLASS NEUMANN_WIND NEUMANN_PRES MLC_LAT MLC_LON MLC_CLASS MLC_WIND MLC_PRES USA_GUST BOM_GUST BOM_GUST_PER REUNION_GUST REUNION_GUST_PER USA_SEAHGT USA_SEARAD_NE USA_SEARAD_SE USA_SEARAD_SW USA_SEARAD_NW STORM_SPEED STORM_DIR
1997146N09161 1997 32 WP MM MARIE 1997-05-25 12:00:00 NR 9.10000 161.400 main 1737 1737 O_____________ jtwc_wp WP061997 9.10000 161.400 20 -1 3 317
1997146N09161 1997 32 WP MM MARIE 1997-05-25 15:00:00 NR 9.20001 161.300 main 1739 1739 P_____________ WP061997 9.20001 161.300 20 -1 3 315
1997146N09161 1997 32 WP MM MARIE 1997-05-25 18:00:00 NR 9.30000 161.200 main 1742 1735 O_____________ jtwc_wp WP061997 9.30000 161.200 20 -1 3 315
1997146N09161 1997 32 WP MM MARIE 1997-05-25 21:00:00 NR 9.40000 161.100 main 1744 1738 P_____________ WP061997 9.40000 161.100 20 -1 3 315
1997146N09161 1997 32 WP MM MARIE 1997-05-26 00:00:00 NR 9.50000 161.000 main 1747 1747 O_____________ jtwc_wp WP061997 9.50000 161.000 20 -1 3 317
1997146N09161 1997 32 WP MM MARIE 1997-05-26 03:00:00 NR 9.60749 160.908 main 1750 1750 P_____________ WP061997 9.60749 160.908 22 -1 3 315
1997146N09161 1997 32 WP MM MARIE 1997-05-26 06:00:00 NR 9.70000 160.800 main 1753 1747 O_____________ jtwc_wp WP061997 9.70000 160.800 25 -1 3 301
1997146N09161 1997 32 WP MM MARIE 1997-05-26 09:00:00 NR 9.74246 160.680 main 1747 1744 P_____________ WP061997 9.74246 160.680 25 -1 3 289
1997146N09161 1997 32 WP MM MARIE 1997-05-26 12:00:00 NR 9.80000 160.500 main 1744 1736 O_____________ jtwc_wp WP061997 9.80000 160.500 25 -1 5 291
1997146N09161 1997 32 WP MM MARIE 1997-05-26 15:00:00 NR 9.91252 160.222 main 1736 1734 P_____________ WP061997 9.91252 160.222 25 -1 7 297
1997146N09161 1997 32 WP MM MARIE 1997-05-26 18:00:00 NR 10.1000 159.900 main 1738 1732 O_____________ jtwc_wp WP061997 10.1000 159.900 25 -1 8 307
1997146N09161 1997 32 WP MM MARIE 1997-05-26 21:00:00 NR 10.3700 159.600 main 1749 1743 P_____________ WP061997 10.3700 159.600 27 -1 8 315
1997146N09161 1997 32 WP MM MARIE 1997-05-27 00:00:00 NR 10.7000 159.300 main 1761 1761 O_____________ jtwc_wp WP061997 10.7000 159.300 30 -1 9 319
1997146N09161 1997 32 WP MM MARIE 1997-05-27 03:00:00 NR 11.0425 159.000 main 1775 1775 P_____________ WP061997 11.0425 159.000 30 -1 9 320
1997146N09161 1997 32 WP MM MARIE 1997-05-27 06:00:00 NR 11.4000 158.700 main 1799 1799 O_____________ jtwc_wp WP061997 11.4000 158.700 30 -1 10 320
1997146N09161 1997 32 WP MM MARIE 1997-05-27 09:00:00 NR 11.7650 158.378 main 1824 1819 P_____________ WP061997 11.7650 158.378 30 -1 9 320
1997146N09161 1997 32 WP MM MARIE 1997-05-27 12:00:00 NR 12.1000 158.100 main 1839 1839 O_____________ jtwc_wp WP061997 12.1000 158.100 30 -1 8 323
1997146N09161 1997 32 WP MM MARIE 1997-05-27 15:00:00 NR 12.3725 157.905 main 1860 1827 P_____________ WP061997 12.3725 157.905 30 -1 8 285
1997146N09161 1997 32 WP MM MARIE 1997-05-27 18:00:00 TS 12.3000 157.333 1002 tokyo main 1823 1823 OOO___________ jtwc_wp WP061997 12.6000 157.800 30 -1 11.7000 156.400 2 1002 0 0 0 11.7000 156.400 0 19 1002 6 277
1997146N09161 1997 32 WP MM MARIE 1997-05-27 21:00:00 TS 12.4451 157.312 main 1833 1833 PPP___________ WP061997 12.8150 157.770 30 -1 12.1905 157.069 2 1002 0 0 11.9600 156.637 0 19 1002 4 21
1997146N09161 1997 32 WP MM MARIE 1997-05-28 00:00:00 TS 12.6400 157.470 1002 tokyo main 1863 1863 OOO___________ jtwc_wp WP061997 13.0000 157.800 30 -1 12.6000 157.600 2 1002 0 0 0 12.2000 156.900 0 19 1002 5 41
1997146N09161 1997 32 WP MM MARIE 1997-05-28 03:00:00 TS 12.8108 157.644 main 1887 1887 PPP___________ WP061997 13.1575 157.842 30 -1 12.8673 157.890 2 1002 0 0 12.4075 157.200 0 19 1002 5 44
1997146N09161 1997 32 WP MM MARIE 1997-05-28 06:00:00 TS 12.9667 157.800 1002 tokyo main 1917 1917 OOO___________ jtwc_wp WP061997 13.3000 157.900 30 -1 13.0000 158.000 2 1002 0 0 0 12.6000 157.500 0 19 1002 4 43
1997146N09161 1997 32 WP MM MARIE 1997-05-28 09:00:00 TS 13.0783 157.903 main 1931 1931 PPP___________ WP061997 13.4500 157.943 30 -1 12.9925 158.000 2 1002 0 0 12.7925 157.765 0 19 1002 3 40
1997146N09161 1997 32 WP MM MARIE 1997-05-28 12:00:00 TS 13.2077 158.008 1002 tokyo main 1946 1946 OOOO__________ jtwc_wp WP061997 13.6000 158.000 30 -1 13.0000 158.000 2 1002 0 0 0 13.0000 158.000 0 19 1002 13.3000 158.100 TD 25 1002 4 38
1997146N09161 1997 32 WP MM MARIE 1997-05-28 15:00:00 TS 13.4018 158.159 main 1975 1975 PPPP__________ WP061997 13.7350 158.085 32 -1 13.1975 158.170 2 1002 0 0 13.2275 158.208 0 21 1001 13.4925 158.190 TD 27 1001 5 35
1997146N09161 1997 32 WP MM MARIE 1997-05-28 18:00:00 TS 13.6467 158.327 1002 tokyo main 2000 2000 OOOO__________ jtwc_wp WP061997 13.9000 158.200 35 0 13.5000 158.400 2 1002 0 0 0 13.5000 158.400 1 23 1000 13.7000 158.300 TD 30 1000 6 32
1997146N09161 1997 32 WP MM MARIE 1997-05-28 21:00:00 TS 13.9369 158.502 main 2040 2040 PPPP__________ WP061997 14.1275 158.335 40 0 13.8425 158.615 2 1000 0 0 13.8425 158.615 1 26 1000 13.9350 158.443 TD 32 999 7 29
1997146N09161 1997 32 WP MM MARIE 1997-05-29 00:00:00 TS 14.2500 158.675 35 998 tokyo main 2089 2089 OOOO__________ jtwc_wp WP061997 14.4000 158.500 45 0 14.2000 158.800 3 35 998 0 9 100 100 0 14.2000 158.800 1 29 1000 14.2000 158.600 TS 35 998 7 27
1997146N09161 1997 32 WP MM MARIE 1997-05-29 03:00:00 TS 14.5312 158.814 main 2114 2114 PPPP__________ WP061997 14.6775 158.693 50 0 14.4850 158.908 3 35 997 0 9 100 100 14.4850 158.908 1 29 1000 14.4775 158.750 TS 35 997 7 24
1997146N09161 1997 32 WP MM MARIE 1997-05-29 06:00:00 TS 14.8500 158.950 35 996 tokyo main 2164 2154 OOOO__________ jtwc_wp WP061997 15.0000 158.900 55 0 14.8000 159.000 3 35 996 0 9 100 100 0 14.8000 159.000 1 29 1000 14.8000 158.900 TS 35 996 8 22
1997146N09161 1997 32 WP MM MARIE 1997-05-29 09:00:00 TS 15.2525 159.111 main 2209 2209 PPPP__________ WP061997 15.3775 159.108 60 0 15.2275 159.150 3 37 995 0 9 110 110 15.2350 159.142 1 31 999 15.1700 159.043 TS 35 996 9 20
1997146N09161 1997 32 WP MM MARIE 1997-05-29 12:00:00 TS 15.7000 159.275 40 994 tokyo main 2259 2259 OOOO__________ jtwc_wp WP061997 15.8000 159.300 65 1 15.7000 159.300 3 40 994 0 9 120 120 0 15.7000 159.300 2 34 998 15.6000 159.200 TS 35 996 9 19
1997146N09161 1997 32 WP MM MARIE 1997-05-29 15:00:00 TS 16.1387 159.431 main 2304 2304 PPPP__________ WP061997 16.2425 159.458 70 1 16.1425 159.400 3 40 992 0 9 125 125 16.0850 159.458 2 36 996 16.0850 159.407 TS 37 995 10 18
1997146N09161 1997 32 WP MM MARIE 1997-05-29 18:00:00 TS 16.6000 159.575 40 990 tokyo main 2364 2364 OOOO__________ jtwc_wp WP061997 16.7000 159.600 75 1 16.6000 159.500 3 40 990 0 9 130 130 0 16.5000 159.600 2 38 995 16.6000 159.600 TS 40 994 10 16
1997146N09161 1997 32 WP MM MARIE 1997-05-29 21:00:00 TS 17.1000 159.711 main 2419 2419 PPPP__________ WP061997 17.1500 159.765 77 1 17.1000 159.650 3 42 987 0 9 135 135 17.0500 159.715 2 38 995 17.1000 159.715 TS 42 992 10 13
1997146N09161 1997 32 WP MM MARIE 1997-05-30 00:00:00 TS 17.6000 159.825 45 985 tokyo main 2474 2474 OOOO__________ jtwc_wp WP061997 17.6000 159.900 80 1 17.6000 159.800 3 45 985 0 9 140 140 0 17.6000 159.800 2 38 995 17.6000 159.800 TS 45 990 10 12
1997146N09161 1997 32 WP MM MARIE 1997-05-30 03:00:00 TS 18.0425 159.915 main 2519 2519 PPPP__________ WP061997 18.0350 159.965 80 1 18.0425 159.915 3 47 982 0 9 150 150 18.0000 159.865 2 41 992 18.0925 159.915 TS 47 987 9 9
1997146N09161 1997 32 WP MM MARIE 1997-05-30 06:00:00 TS 18.5000 159.975 50 980 tokyo main 2575 2575 OOOO__________ jtwc_wp WP061997 18.5000 160.000 80 1 18.5000 160.000 4 50 980 0 9 160 160 0 18.4000 159.900 2 44 990 18.6000 160.000 STS 50 985 10 5
1997146N09161 1997 32 WP MM MARIE 1997-05-30 09:00:00 TS 19.0219 160.002 main 2626 2590 PPPP__________ WP061997 19.0275 160.050 80 1 19.0200 160.058 4 52 977 0 9 170 170 18.9050 159.893 2 46 987 19.1350 160.008 STS 50 985 11 2
1997146N09161 1997 32 WP MM MARIE 1997-05-30 12:00:00 TS 19.6000 160.025 55 975 tokyo main 2590 2548 OOOO__________ jtwc_wp WP061997 19.6000 160.100 80 1 19.6000 160.100 4 55 975 9 50 50 9 180 180 0 19.5000 159.900 3 48 985 19.7000 160.000 STS 50 985 12 4
1997146N09161 1997 32 WP MM MARIE 1997-05-30 15:00:00 TS 20.2356 160.082 main 2548 2500 PPPP__________ WP061997 20.1925 160.150 82 1 20.2500 160.150 4 57 972 9 55 55 9 190 190 20.2000 159.992 3 53 982 20.3000 160.035 STS 52 982 13 5
1997146N09161 1997 32 WP MM MARIE 1997-05-30 18:00:00 TS 20.8750 160.150 60 970 tokyo main 2499 2459 OOOO__________ jtwc_wp WP061997 20.8000 160.200 85 2 20.9000 160.200 4 60 970 9 60 60 9 200 200 0 20.9000 160.100 3 58 980 20.9000 160.100 STS 55 980 12 5
1997146N09161 1997 32 WP MM MARIE 1997-05-30 21:00:00 TS 21.4543 160.185 main 2451 2420 PPPP__________ WP061997 21.4075 160.228 87 2 21.4724 160.220 4 62 967 9 65 65 9 210 210 21.4799 160.121 3 61 977 21.4574 160.170 STS 60 975 11 6
1997146N09161 1997 32 WP MM MARIE 1997-05-31 00:00:00 TS 22.0000 160.275 65 965 tokyo main 2420 2389 OOOO__________ jtwc_wp WP061997 22.0000 160.300 90 2 22.0000 160.300 5 65 965 9 70 70 9 220 220 0 22.0000 160.200 4 64 975 22.0000 160.300 T 65 970 11 14
1997146N09161 1997 32 WP MM MARIE 1997-05-31 03:00:00 TS 22.5324 160.475 main 2397 2375 PPPP__________ WP061997 22.5573 160.440 90 2 22.5074 160.498 5 65 965 9 70 70 9 220 220 22.5075 160.455 4 64 975 22.5574 160.505 T 65 970 12 24
1997146N09161 1997 32 WP MM MARIE 1997-05-31 06:00:00 TS 23.0500 160.775 65 965 tokyo main 2376 2368 OOOO__________ jtwc_wp WP061997 23.1000 160.700 90 2 23.0000 160.800 5 65 965 9 70 70 9 220 220 0 23.0000 160.800 4 64 975 23.1000 160.800 T 65 970 12 31
1997146N09161 1997 32 WP MM MARIE 1997-05-31 09:00:00 TS 23.5549 161.136 main 2363 2363 PPPP__________ WP061997 23.6501 161.105 90 2 23.4849 161.156 5 65 965 9 70 70 9 220 220 23.4848 161.121 4 64 975 23.5999 161.163 T 65 970 13 36
1997146N09161 1997 32 WP MM MARIE 1997-05-31 12:00:00 TS 24.0750 161.575 65 965 tokyo main 2368 2361 OOOO__________ jtwc_wp WP061997 24.2000 161.600 90 2 24.0000 161.600 5 65 965 9 70 70 9 220 220 0 24.0000 161.500 4 64 975 24.1000 161.600 T 65 970 14 37
1997146N09161 1997 32 WP MM MARIE 1997-05-31 15:00:00 TS 24.6459 162.041 main 2366 2363 PPPP__________ WP061997 24.7496 162.063 87 2 24.5922 162.098 5 62 967 9 65 65 9 215 215 24.5996 161.940 4 61 977 24.6422 162.063 T 62 972 15 39
1997146N09161 1997 32 WP MM MARIE 1997-05-31 18:00:00 TS 25.2250 162.600 60 970 tokyo main 2376 2370 OOOO__________ jtwc_wp WP061997 25.3000 162.600 85 2 25.2000 162.700 4 60 970 9 60 60 9 210 210 0 25.2000 162.500 3 58 980 25.2000 162.600 STS 60 975 16 45
1997146N09161 1997 32 WP MM MARIE 1997-05-31 21:00:00 TS 25.7545 163.252 main 2397 2397 PPPP__________ WP061997 25.8268 163.227 80 1 25.7573 163.406 4 57 972 9 50 50 9 210 210 25.6996 163.184 3 58 980 25.7344 163.191 STS 57 977 17 50
1997146N09161 1997 32 WP MM MARIE 1997-06-01 00:00:00 TS 26.3000 164.025 55 975 tokyo main 2427 2427 OOOO__________ jtwc_wp WP061997 26.4000 164.000 75 1 26.3000 164.200 4 55 975 9 40 40 9 210 210 0 26.2000 164.000 3 58 980 26.3000 163.900 STS 55 980 19 52
1997146N09161 1997 32 WP MM MARIE 1997-06-01 03:00:00 TS 26.9072 164.876 main 2470 2463 PPPP__________ WP061997 27.0922 164.933 72 1 26.8337 164.984 4 52 977 9 9 195 195 26.7766 164.884 3 53 982 26.9263 164.704 STS 52 982 21 53
1997146N09161 1997 32 WP MM MARIE 1997-06-01 06:00:00 TS 27.5500 165.875 50 980 tokyo main 2459 2453 OOOO__________ jtwc_wp WP061997 27.8000 166.000 70 1 27.4000 165.900 4 50 980 0 9 180 180 0 27.4000 165.900 3 48 985 27.6000 165.700 STS 50 985 23 56
1997146N09161 1997 32 WP MM MARIE 1997-06-01 09:00:00 TS 28.1953 167.012 main 2460 2456 PPPP__________ WP061997 28.3832 167.079 67 1 28.0419 167.018 4 47 982 0 9 180 180 28.0416 167.034 3 46 987 28.3146 166.918 STS 50 985 25 59
1997146N09161 1997 32 WP MM MARIE 1997-06-01 12:00:00 TS 28.8500 168.300 45 985 tokyo main 2465 2467 OOOO__________ jtwc_wp WP061997 29.0000 168.300 65 1 28.7000 168.300 3 45 985 0 9 180 180 0 28.7000 168.300 2 44 990 29.0000 168.300 STS 50 985 27 62
1997146N09161 1997 32 WP MM MARIE 1997-06-01 15:00:00 TS 29.4593 169.681 main 2490 2490 PPPP__________ WP061997 29.7618 169.726 62 0 29.2450 169.616 3 42 987 0 9 170 170 29.3045 169.673 2 41 992 29.5259 169.710 STS 47 987 28 62
1997146N09161 1997 32 WP MM MARIE 1997-06-01 18:00:00 TS 30.1533 171.173 40 990 tokyo main 2519 2519 OOOO__________ jtwc_wp WP061997 30.6000 171.300 60 0 29.9000 171.100 3 40 990 0 9 160 160 0 30.0000 171.100 2 38 995 30.1000 171.200 TS 45 990 31 60
1997146N09161 1997 32 WP MM MARIE 1997-06-01 21:00:00 TS 31.0065 172.754 main 2552 2527 PPPP__________ WP061997 31.4173 172.895 57 0 30.8051 172.906 3 993 0 9 30.8569 172.453 2 36 996 30.8867 172.769 TS 42 992 33 56
1997146N09161 1997 32 WP MM MARIE 1997-06-02 00:00:00 MX 32.0154 174.400 996 tokyo main 2532 2500 OOOO__________ jtwc_wp WP061997 32.3000 174.600 55 0 31.9000 174.700 6 996 0 0 0 31.9000 173.900 2 34 998 31.8000 174.400 TS 40 994 35 52
1997146N09161 1997 32 WP MM MARIE 1997-06-02 03:00:00 MX 33.1869 176.027 main 2496 2321 PPP___________ WP061997 33.2601 176.437 52 0 33.1512 176.055 6 998 0 0 33.1494 175.588 2 31 999 TS 37 51
1997146N09161 1997 32 WP MM MARIE 1997-06-02 06:00:00 MX 34.3600 177.800 1000 tokyo main 2308 2139 OOO___________ jtwc_wp WP061997 34.3000 178.400 50 0 34.4000 177.400 6 1000 0 0 0 34.4000 177.400 1 29 1000 38 54
1997146N09161 1997 32 WP MM MARIE 1997-06-02 09:00:00 MX 35.4163 179.778 main 2136 1970 PPP___________ WP061997 35.4022 -179.586 50 0 35.4316 179.079 6 1000 0 0 35.4291 179.203 1 29 1000 40 59
1997146N09161 1997 32 EP CP MARIE 1997-06-02 12:00:00 MX 36.4200 181.960 main 1965 1787 OOO___________ jtwc_wp WP061997 36.5000 -177.400 50 0 36.3000 181.000 6 1000 0 0 0 36.3000 181.000 1 29 1000 47 64
1997146N09161 1997 32 EP CP MARIE 1997-06-02 15:00:00 NR 37.4975 185.018 main 1774 1634 P_____________ WP061997 37.4975 -174.982 50 0 6 0 0 1 49 66
1997146N09161 1997 32 EP CP MARIE 1997-06-02 18:00:00 NR 38.4000 187.600 main 1633 O_____________ jtwc_wp WP061997 38.4000 -172.400 50 0 44 66

デジタル台風データ・検索

IBTrACS Databaseについて

本データベースは、米国NOAAが公開する1842年以降の世界の熱帯低気圧のベストトラックデータアーカイブInternational Best Track Archive for Climate Stewardship (IBTrACS)を、ウェブで閲覧しやすい形式に変換したものです。

最終更新日:2021-10-21